createdAt,value
2023-05-07T00:02:00.501Z,1.00
2023-05-07T00:04:30.440Z,1.97
2023-05-07T00:06:57.875Z,1.53
2023-05-07T00:09:26.529Z,1.57
2023-05-07T00:11:53.968Z,1.47
2023-05-07T00:14:22.270Z,1.93
2023-05-07T00:16:51.202Z,1.30
2023-05-07T00:19:19.616Z,2.13
2023-05-07T00:21:48.207Z,1.20
2023-05-07T00:24:16.358Z,1.40
2023-05-07T00:26:44.277Z,1.37
2023-05-07T00:29:12.856Z,1.57
2023-05-07T00:31:41.957Z,1.37
2023-05-07T00:34:10.070Z,1.27
2023-05-07T00:36:38.523Z,1.43
2023-05-07T00:39:07.448Z,1.13
2023-05-07T00:41:37.100Z,1.73
2023-05-07T00:44:05.344Z,2.07
2023-05-07T00:46:38.822Z,1.57
2023-05-07T00:49:08.335Z,1.23
2023-05-07T00:51:37.062Z,1.30
2023-05-07T00:54:05.993Z,1.53
2023-05-07T00:56:34.041Z,1.67
2023-05-07T00:59:04.841Z,1.47
2023-05-07T01:01:35.796Z,1.07
2023-05-07T01:04:04.165Z,1.50
2023-05-07T01:06:35.654Z,2.00
2023-05-07T01:09:05.972Z,1.03
2023-05-07T01:11:35.240Z,2.17
2023-05-07T01:14:04.251Z,1.83
2023-05-07T01:16:32.481Z,1.47
2023-05-07T01:19:01.130Z,1.47
2023-05-07T01:21:35.753Z,1.77
2023-05-07T01:24:04.243Z,1.97
2023-05-07T01:26:32.945Z,1.97
2023-05-07T01:29:00.934Z,1.13
2023-05-07T01:31:29.275Z,1.40
2023-05-07T01:34:01.056Z,1.57
2023-05-07T01:36:32.372Z,1.80
2023-05-07T01:39:01.693Z,0.97
2023-05-07T01:41:31.896Z,1.50
2023-05-07T01:44:01.333Z,1.50
2023-05-07T01:46:30.775Z,1.50
2023-05-07T01:49:00.025Z,1.13
2023-05-07T01:51:28.284Z,1.37
2023-05-07T01:53:57.262Z,1.47
2023-05-07T01:56:26.880Z,1.50
2023-05-07T01:58:55.561Z,1.23
2023-05-07T02:01:23.636Z,1.30
2023-05-07T02:03:52.199Z,0.90
2023-05-07T02:06:21.438Z,1.93
2023-05-07T02:08:50.531Z,1.07
2023-05-07T02:11:19.477Z,1.63
2023-05-07T02:13:47.377Z,1.00
2023-05-07T02:16:15.853Z,1.00
2023-05-07T02:18:44.998Z,2.23
2023-05-07T02:21:16.000Z,1.47
2023-05-07T02:23:44.812Z,1.37
2023-05-07T02:26:15.061Z,1.37
2023-05-07T02:28:43.163Z,2.13
2023-05-07T02:31:10.702Z,1.40
2023-05-07T02:33:38.976Z,0.93
2023-05-07T02:36:12.229Z,1.67
2023-05-07T02:38:40.537Z,0.97
2023-05-07T02:41:08.797Z,1.10
2023-05-07T02:43:38.194Z,1.50
2023-05-07T02:46:08.947Z,1.53
2023-05-07T02:48:37.683Z,1.87
2023-05-07T02:51:06.638Z,1.77
2023-05-07T02:53:35.766Z,1.73
2023-05-07T02:56:04.174Z,1.73
2023-05-07T02:58:31.989Z,2.20
2023-05-07T03:01:01.156Z,1.60
2023-05-07T03:03:29.829Z,1.80
2023-05-07T03:05:58.712Z,1.13
2023-05-07T03:08:27.550Z,1.87
2023-05-07T03:10:56.075Z,1.87
2023-05-07T03:13:24.036Z,2.30
2023-05-07T03:15:52.350Z,1.27
2023-05-07T03:18:21.456Z,2.23
2023-05-07T03:20:51.311Z,1.73
2023-05-07T03:23:19.960Z,1.53
2023-05-07T03:25:48.446Z,1.93
2023-05-07T03:28:16.826Z,1.40
2023-05-07T03:30:46.032Z,1.33
2023-05-07T03:33:14.571Z,2.30
2023-05-07T03:35:43.386Z,1.87
2023-05-07T03:38:11.271Z,2.67
2023-05-07T03:40:40.466Z,2.57
2023-05-07T03:43:09.760Z,2.00
2023-05-07T03:45:39.358Z,3.07
2023-05-07T03:48:07.960Z,3.07
2023-05-07T03:50:36.587Z,2.67
2023-05-07T03:53:06.293Z,2.40
2023-05-07T03:55:33.906Z,3.10
2023-05-07T03:58:03.544Z,3.50
2023-05-07T04:00:36.286Z,2.90
2023-05-07T04:03:06.626Z,2.47
2023-05-07T04:05:35.849Z,3.00
2023-05-07T04:08:04.317Z,2.77
2023-05-07T04:10:33.348Z,2.67
2023-05-07T04:13:01.321Z,2.67
2023-05-07T04:15:28.770Z,3.10
2023-05-07T04:17:56.457Z,2.67
2023-05-07T04:20:28.757Z,3.33
2023-05-07T04:23:05.515Z,2.77
2023-05-07T04:25:38.374Z,3.07
2023-05-07T04:28:10.617Z,3.40
2023-05-07T04:30:41.109Z,3.90
2023-05-07T04:33:11.196Z,3.23
2023-05-07T04:35:41.763Z,3.97
2023-05-07T04:38:13.519Z,2.83
2023-05-07T04:40:48.638Z,3.63
2023-05-07T04:43:17.919Z,3.70
2023-05-07T04:45:46.973Z,3.07
2023-05-07T04:48:17.928Z,3.13
2023-05-07T04:50:52.321Z,3.40
2023-05-07T04:53:23.257Z,3.33
2023-05-07T04:56:00.161Z,3.17
2023-05-07T04:58:44.559Z,3.73
2023-05-07T05:01:17.425Z,2.63
2023-05-07T05:04:16.253Z,3.80
2023-05-07T05:06:45.952Z,3.43
2023-05-07T05:09:41.036Z,3.30
2023-05-07T05:12:19.206Z,3.87
2023-05-07T05:14:52.680Z,4.27
2023-05-07T05:17:24.467Z,3.50
2023-05-07T05:19:54.758Z,3.83
2023-05-07T05:22:27.333Z,4.67
2023-05-07T05:24:59.600Z,4.33
2023-05-07T05:27:34.811Z,4.47
2023-05-07T05:30:13.051Z,4.30
2023-05-07T05:32:45.323Z,4.10
2023-05-07T05:35:18.710Z,4.40
2023-05-07T05:37:48.229Z,4.90
2023-05-07T05:40:17.428Z,4.93
2023-05-07T05:42:53.299Z,4.67
2023-05-07T05:45:24.956Z,4.90
2023-05-07T05:47:57.018Z,4.27
2023-05-07T05:50:32.460Z,4.33
2023-05-07T05:53:08.328Z,4.23
2023-05-07T05:55:39.256Z,4.20
2023-05-07T05:58:17.651Z,4.27
2023-05-07T06:01:09.206Z,4.73
2023-05-07T06:03:40.974Z,4.80
2023-05-07T06:06:11.553Z,4.63
2023-05-07T06:09:05.654Z,4.23
2023-05-07T06:11:50.813Z,4.07
2023-05-07T06:14:21.350Z,4.90
2023-05-07T06:16:52.223Z,4.93
2023-05-07T06:19:24.565Z,4.57
2023-05-07T06:21:52.636Z,4.37
2023-05-07T06:24:21.535Z,5.00
2023-05-07T06:26:50.765Z,4.57
2023-05-07T06:29:21.357Z,5.13
2023-05-07T06:32:17.290Z,4.50
2023-05-07T06:40:20.684Z,4.23
2023-05-07T06:42:51.544Z,4.93
2023-05-07T06:45:27.050Z,3.90
2023-05-07T06:47:57.947Z,4.27
2023-05-07T06:54:24.432Z,4.30
2023-05-07T06:56:55.271Z,4.00
2023-05-07T06:59:23.960Z,3.67
2023-05-07T07:01:52.396Z,3.57
2023-05-07T07:04:24.384Z,4.00
2023-05-07T07:06:56.976Z,3.70
2023-05-07T07:09:25.555Z,3.47
2023-05-07T07:11:53.477Z,3.63
2023-05-07T07:14:22.066Z,3.63
2023-05-07T07:16:51.307Z,3.20
2023-05-07T07:19:22.091Z,2.73
2023-05-07T07:21:55.306Z,3.27
2023-05-07T07:24:25.644Z,3.93
2023-05-07T07:27:01.835Z,3.17
2023-05-07T07:29:33.705Z,3.33
2023-05-07T07:32:03.955Z,2.70
2023-05-07T07:34:35.620Z,2.47
2023-05-07T07:37:11.916Z,3.47
2023-05-07T07:39:42.496Z,3.43
2023-05-07T07:42:21.398Z,3.33
2023-05-07T07:44:51.473Z,2.87
2023-05-07T07:47:28.425Z,2.50
2023-05-07T07:50:01.525Z,3.17
2023-05-07T07:52:30.363Z,2.90
2023-05-07T07:54:59.607Z,2.60
2023-05-07T07:57:29.324Z,3.40
2023-05-07T07:59:58.016Z,3.23
2023-05-07T08:02:27.251Z,3.50
2023-05-07T08:05:00.193Z,3.00
2023-05-07T08:07:42.381Z,2.97
2023-05-07T08:10:30.056Z,3.00
2023-05-07T08:13:00.207Z,2.17
2023-05-07T08:15:38.063Z,2.63
2023-05-07T08:18:11.602Z,2.10
2023-05-07T08:20:44.382Z,2.77
2023-05-07T08:23:25.824Z,1.73
2023-05-07T08:25:57.914Z,2.40
2023-05-07T08:28:31.014Z,2.90
2023-05-07T08:31:03.908Z,2.90
2023-05-07T08:33:40.684Z,2.20
2023-05-07T08:36:10.222Z,2.43
2023-05-07T08:38:41.892Z,1.90
2023-05-07T08:41:14.839Z,2.73
2023-05-07T08:43:53.400Z,2.60
2023-05-07T08:46:24.468Z,2.00
2023-05-07T08:48:54.328Z,2.30
2023-05-07T08:51:26.758Z,1.90
2023-05-07T08:53:57.948Z,2.63
2023-05-07T08:56:33.787Z,2.80
2023-05-07T08:59:26.114Z,2.50
2023-05-07T09:02:38.908Z,2.27
2023-05-07T09:05:38.356Z,2.43
2023-05-07T09:08:28.197Z,2.40
2023-05-07T09:10:58.658Z,1.53
2023-05-07T09:13:31.297Z,2.20
2023-05-07T09:19:29.979Z,2.50
2023-05-07T09:22:13.178Z,2.47
2023-05-07T09:24:52.811Z,1.93
2023-05-07T09:27:23.926Z,2.30
2023-05-07T09:29:59.838Z,1.93
2023-05-07T09:32:32.064Z,1.93
2023-05-07T09:35:02.431Z,2.03
2023-05-07T09:37:33.678Z,2.47
2023-05-07T09:40:02.972Z,2.43
2023-05-07T09:42:31.940Z,1.97
2023-05-07T09:45:02.226Z,2.07
2023-05-07T09:47:38.389Z,2.30
2023-05-07T09:50:14.649Z,2.43
2023-05-07T09:52:45.904Z,2.00
2023-05-07T09:55:17.245Z,2.27
2023-05-07T09:57:47.935Z,1.77
2023-05-07T10:00:19.130Z,2.27
2023-05-07T10:03:01.317Z,2.17
2023-05-07T10:05:33.925Z,1.50
2023-05-07T10:08:04.879Z,2.53
2023-05-07T10:10:37.008Z,1.97
2023-05-07T10:13:12.451Z,2.03
2023-05-07T10:15:43.802Z,2.20
2023-05-07T10:18:15.426Z,1.87
2023-05-07T10:20:49.333Z,1.50
2023-05-07T10:23:25.995Z,2.00
2023-05-07T10:26:00.767Z,1.70
2023-05-07T10:28:35.769Z,2.20
2023-05-07T10:31:17.186Z,2.10
2023-05-07T10:33:50.361Z,1.73
2023-05-07T10:36:20.622Z,1.93
2023-05-07T10:38:49.203Z,2.27
2023-05-07T10:41:20.357Z,2.20
2023-05-07T10:43:53.609Z,1.90
2023-05-07T10:46:24.261Z,2.07
2023-05-07T10:49:04.778Z,2.27
2023-05-07T10:51:37.661Z,2.17
2023-05-07T10:54:14.431Z,2.10
2023-05-07T10:56:51.778Z,1.97
2023-05-07T10:59:23.013Z,1.83
2023-05-07T11:02:05.698Z,2.20
2023-05-07T11:04:37.812Z,2.23
2023-05-07T11:07:12.629Z,2.10
2023-05-07T11:10:02.860Z,1.73
2023-05-07T11:12:40.333Z,2.23
2023-05-07T11:15:12.970Z,2.37
2023-05-07T11:17:59.900Z,2.20
2023-05-07T11:21:00.487Z,1.97
2023-05-07T11:23:36.932Z,2.07
2023-05-07T11:26:09.992Z,2.17
2023-05-07T11:28:44.800Z,2.07
2023-05-07T11:31:14.518Z,2.20
2023-05-07T11:33:43.496Z,2.60
2023-05-07T11:36:12.573Z,2.50
2023-05-07T11:38:41.946Z,2.07
2023-05-07T11:41:12.912Z,2.50
2023-05-07T11:44:17.083Z,2.23
2023-05-07T11:46:46.764Z,2.90
2023-05-07T11:49:20.138Z,2.10
2023-05-07T11:51:48.876Z,2.03
2023-05-07T11:54:18.311Z,2.33
2023-05-07T11:56:47.577Z,2.30
2023-05-07T11:59:20.766Z,2.70
2023-05-07T12:01:49.443Z,2.47
2023-05-07T12:04:22.974Z,1.93
2023-05-07T12:06:56.026Z,2.50
2023-05-07T12:09:25.459Z,2.20
2023-05-07T12:11:54.919Z,2.70
2023-05-07T12:14:30.573Z,2.60
2023-05-07T12:17:02.458Z,2.73
2023-05-07T12:19:32.835Z,2.50
2023-05-07T12:22:01.682Z,2.73
2023-05-07T12:24:43.428Z,2.50
2023-05-07T12:27:12.735Z,2.50
2023-05-07T12:29:45.014Z,2.60
2023-05-07T12:32:31.457Z,2.30
2023-05-07T12:35:00.620Z,2.20
2023-05-07T12:37:32.356Z,2.87
2023-05-07T12:40:11.431Z,2.50
2023-05-07T12:42:42.720Z,2.83
2023-05-07T12:45:14.872Z,2.50
2023-05-07T12:47:52.164Z,2.57
2023-05-07T12:50:22.127Z,2.33
2023-05-07T12:52:51.715Z,2.03
2023-05-07T12:55:19.477Z,2.77
2023-05-07T12:57:53.137Z,2.53
2023-05-07T13:00:39.771Z,2.90
2023-05-07T13:03:09.215Z,2.23
2023-05-07T13:05:37.492Z,2.47
2023-05-07T13:08:07.239Z,2.50
2023-05-07T13:10:36.035Z,2.23
2023-05-07T13:13:04.783Z,2.60
2023-05-07T13:15:34.665Z,2.50
2023-05-07T13:18:04.363Z,2.30
2023-05-07T13:20:34.389Z,2.30
2023-05-07T13:23:08.868Z,2.03
2023-05-07T13:25:39.184Z,2.13
2023-05-07T13:28:11.166Z,1.80
2023-05-07T13:30:42.063Z,2.40
2023-05-07T13:33:35.594Z,2.83
2023-05-07T13:36:08.148Z,2.27
2023-05-07T13:38:45.837Z,2.07
2023-05-07T13:41:21.393Z,2.10
2023-05-07T13:43:52.955Z,2.10
2023-05-07T13:46:34.691Z,2.13
2023-05-07T13:49:05.107Z,1.87
2023-05-07T13:51:36.255Z,2.33
2023-05-07T13:54:05.882Z,1.60
2023-05-07T13:56:36.610Z,2.43
2023-05-07T13:59:04.884Z,2.43
2023-05-07T14:01:36.273Z,2.63
2023-05-07T14:04:04.968Z,1.97
2023-05-07T14:06:33.216Z,2.00
2023-05-07T14:09:01.915Z,2.13
2023-05-07T14:11:31.513Z,2.40
2023-05-07T14:14:02.903Z,1.80
2023-05-07T14:16:31.031Z,2.00
2023-05-07T14:19:00.125Z,2.10
2023-05-07T14:21:27.737Z,2.47
2023-05-07T14:23:57.869Z,2.40
2023-05-07T14:26:25.434Z,2.77
2023-05-07T14:28:53.795Z,2.20
2023-05-07T14:31:23.290Z,1.87
2023-05-07T14:33:53.888Z,1.83
2023-05-07T14:36:27.119Z,2.10
2023-05-07T14:38:56.067Z,2.13
2023-05-07T14:41:29.197Z,2.13
2023-05-07T14:44:00.639Z,2.57
2023-05-07T14:46:29.074Z,2.30
2023-05-07T14:48:58.876Z,2.07
2023-05-07T14:51:27.071Z,2.90
2023-05-07T14:53:55.863Z,2.73
2023-05-07T14:56:23.882Z,2.90
2023-05-07T14:58:52.152Z,2.80
2023-05-07T15:01:22.328Z,2.70
2023-05-07T15:03:50.884Z,2.50
2023-05-07T15:06:19.958Z,2.33
2023-05-07T15:08:49.204Z,2.73
2023-05-07T15:11:19.402Z,2.80
2023-05-07T15:13:47.681Z,3.27
2023-05-07T15:16:16.186Z,3.47
2023-05-07T15:18:45.668Z,3.00
2023-05-07T15:21:14.729Z,3.07
2023-05-07T15:23:43.166Z,2.80
2023-05-07T15:26:18.355Z,2.80
2023-05-07T15:28:49.275Z,3.23
2023-05-07T15:31:49.767Z,3.40
2023-05-07T15:34:38.615Z,3.20
2023-05-07T15:37:09.827Z,3.67
2023-05-07T15:39:40.850Z,3.23
2023-05-07T15:42:09.661Z,3.40
2023-05-07T15:44:41.257Z,3.20
2023-05-07T15:47:12.683Z,3.83
2023-05-07T15:49:40.821Z,3.80
2023-05-07T15:52:12.014Z,3.93
2023-05-07T15:54:40.500Z,3.17
2023-05-07T15:57:21.293Z,5.50
2023-05-07T15:59:55.362Z,3.27
2023-05-07T16:02:27.194Z,2.90
2023-05-07T16:04:55.607Z,3.00
2023-05-07T16:07:24.744Z,3.53
2023-05-07T16:10:03.096Z,2.60
2023-05-07T16:12:34.985Z,3.23
2023-05-07T16:15:07.166Z,3.30
2023-05-07T16:17:42.717Z,2.97
2023-05-07T16:20:15.630Z,3.37
2023-05-07T16:22:43.711Z,3.37
2023-05-07T16:25:13.380Z,3.37
2023-05-07T16:27:43.790Z,2.77
2023-05-07T16:30:19.139Z,2.80
2023-05-07T16:32:48.502Z,2.80
2023-05-07T16:35:26.087Z,6.70
2023-05-07T16:37:54.260Z,2.17
2023-05-07T16:40:22.568Z,2.67
2023-05-07T16:42:50.232Z,2.53
2023-05-07T16:45:21.985Z,2.60
2023-05-07T16:47:50.666Z,1.80
2023-05-07T16:50:18.762Z,2.23
2023-05-07T16:52:47.364Z,2.23
2023-05-07T16:55:15.492Z,2.60
2023-05-07T16:57:43.380Z,1.47
2023-05-07T17:00:12.899Z,1.53
2023-05-07T17:02:41.781Z,2.60
2023-05-07T17:05:11.164Z,2.27
2023-05-07T17:07:39.819Z,2.23
2023-05-07T17:10:08.986Z,2.43
2023-05-07T17:12:37.869Z,1.80
2023-05-07T17:15:07.308Z,2.23
2023-05-07T17:17:37.770Z,1.20
2023-05-07T17:20:06.548Z,2.20
2023-05-07T17:22:34.276Z,1.43
2023-05-07T17:25:04.345Z,1.50
2023-05-07T17:27:34.736Z,1.57
2023-05-07T17:30:03.242Z,1.70
2023-05-07T17:32:31.286Z,1.73
2023-05-07T17:34:59.176Z,1.67
2023-05-07T17:37:27.500Z,2.07
2023-05-07T17:39:54.874Z,2.83
2023-05-07T17:42:22.973Z,2.23
2023-05-07T17:44:50.540Z,1.67
2023-05-07T17:47:18.090Z,1.97
2023-05-07T17:49:45.742Z,1.67
2023-05-07T17:52:13.573Z,2.03
2023-05-07T17:54:41.746Z,1.93
2023-05-07T17:57:09.375Z,1.33
2023-05-07T17:59:37.520Z,2.07
2023-05-07T18:02:05.287Z,1.60
2023-05-07T18:04:33.700Z,1.63
2023-05-07T18:07:01.287Z,1.83
2023-05-07T18:09:28.981Z,1.90
2023-05-07T18:11:56.709Z,1.70
2023-05-07T18:14:26.327Z,1.80
2023-05-07T18:16:54.401Z,2.27
2023-05-07T18:19:22.422Z,2.13
2023-05-07T18:21:50.821Z,2.20
2023-05-07T18:24:18.530Z,1.47
2023-05-07T18:26:49.262Z,1.60
2023-05-07T18:29:17.151Z,1.33
2023-05-07T18:31:44.955Z,1.50
2023-05-07T18:34:14.608Z,1.93
2023-05-07T18:36:42.361Z,1.53
2023-05-07T18:39:10.081Z,2.13
2023-05-07T18:41:37.688Z,2.13
2023-05-07T18:44:05.802Z,1.73
2023-05-07T18:46:35.499Z,2.17
2023-05-07T18:49:02.881Z,2.67
2023-05-07T18:51:30.602Z,1.97
2023-05-07T18:53:57.981Z,2.37
2023-05-07T18:56:27.073Z,2.90
2023-05-07T18:59:00.641Z,1.83
2023-05-07T19:01:28.536Z,2.20
2023-05-07T19:03:56.361Z,2.10
2023-05-07T19:06:26.551Z,2.60
2023-05-07T19:08:54.982Z,4.80
2023-05-07T19:11:24.612Z,1.93
2023-05-07T19:13:53.131Z,2.07
2023-05-07T19:16:22.062Z,1.90
2023-05-07T19:18:52.953Z,1.87
2023-05-07T19:21:24.514Z,1.80
2023-05-07T19:23:54.100Z,2.23
2023-05-07T19:26:24.176Z,2.13
2023-05-07T19:29:01.689Z,1.83
2023-05-07T19:31:40.060Z,1.77
2023-05-07T19:34:08.585Z,1.57
2023-05-07T19:36:36.307Z,0.67
2023-05-07T19:39:11.860Z,1.33
2023-05-07T19:41:39.729Z,1.33
2023-05-07T19:44:10.300Z,1.23
2023-05-07T19:46:40.721Z,0.90
2023-05-07T19:49:11.199Z,0.80
2023-05-07T19:51:40.944Z,1.03
2023-05-07T19:54:09.581Z,0.70
2023-05-07T19:56:38.849Z,1.13
2023-05-07T19:59:08.528Z,2.17
2023-05-07T20:01:36.930Z,1.67
2023-05-07T20:04:05.713Z,0.93
2023-05-07T20:06:34.039Z,1.30
2023-05-07T20:09:01.804Z,1.57
2023-05-07T20:11:30.337Z,1.00
2023-05-07T20:13:58.556Z,2.00
2023-05-07T20:16:26.925Z,1.43
2023-05-07T20:18:56.157Z,1.10
2023-05-07T20:21:24.643Z,1.33
2023-05-07T20:23:52.672Z,1.17
2023-05-07T20:26:22.081Z,1.17
2023-05-07T20:28:49.885Z,1.27
2023-05-07T20:31:18.586Z,1.50
2023-05-07T20:33:46.434Z,0.90
2023-05-07T20:36:15.724Z,1.27
2023-05-07T20:38:44.410Z,1.40
2023-05-07T20:41:17.759Z,0.90
2023-05-07T20:43:45.483Z,1.43
2023-05-07T20:46:14.339Z,0.70
2023-05-07T20:48:44.225Z,1.17
2023-05-07T20:51:16.209Z,1.17
2023-05-07T20:53:47.269Z,0.80
2023-05-07T20:56:19.493Z,1.37
2023-05-07T20:58:47.690Z,0.70
2023-05-07T21:01:16.148Z,1.07
2023-05-07T21:03:44.754Z,1.40
2023-05-07T21:06:13.451Z,1.03
2023-05-07T21:08:42.125Z,0.90
2023-05-07T21:11:13.382Z,1.40
2023-05-07T21:13:41.941Z,2.90
2023-05-07T21:16:11.172Z,1.30
2023-05-07T21:18:40.238Z,1.20
2023-05-07T21:21:09.842Z,0.90
2023-05-07T21:23:42.706Z,2.00
2023-05-07T21:26:18.978Z,1.30
2023-05-07T21:28:47.872Z,1.33
2023-05-07T21:31:19.003Z,1.73
2023-05-07T21:33:47.191Z,1.47
2023-05-07T21:36:15.384Z,1.93
2023-05-07T21:38:43.249Z,1.63
2023-05-07T21:41:12.989Z,2.27
2023-05-07T21:43:42.002Z,1.37
2023-05-07T21:46:11.192Z,1.70
2023-05-07T21:48:40.216Z,1.37
2023-05-07T21:51:09.428Z,1.77
2023-05-07T21:53:41.714Z,1.13
2023-05-07T21:56:10.284Z,1.87
2023-05-07T21:58:39.778Z,1.40
2023-05-07T22:01:08.778Z,1.60
2023-05-07T22:03:36.700Z,1.23
2023-05-07T22:06:06.293Z,1.83
2023-05-07T22:08:36.093Z,1.63
2023-05-07T22:11:05.693Z,2.17
2023-05-07T22:13:34.781Z,2.07
2023-05-07T22:16:04.104Z,1.30
2023-05-07T22:18:32.548Z,1.07
2023-05-07T22:21:01.529Z,0.87
2023-05-07T22:23:30.154Z,0.93
2023-05-07T22:25:59.715Z,1.43
2023-05-07T22:28:28.265Z,1.03
2023-05-07T22:30:59.062Z,1.07
2023-05-07T22:33:28.200Z,1.63
2023-05-07T22:35:58.177Z,2.73
2023-05-07T22:38:28.668Z,2.10
2023-05-07T22:40:59.349Z,1.90
2023-05-07T22:43:57.664Z,1.00
2023-05-07T22:46:26.397Z,1.90
2023-05-07T22:48:57.222Z,1.47
2023-05-07T22:51:29.739Z,1.33
2023-05-07T22:54:01.620Z,1.03
2023-05-07T22:56:35.352Z,1.20
2023-05-07T22:59:04.133Z,1.27
2023-05-07T23:01:45.874Z,1.63
2023-05-07T23:04:29.959Z,1.40
2023-05-07T23:06:58.819Z,1.30
2023-05-07T23:09:28.111Z,1.33
2023-05-07T23:11:57.226Z,1.50
2023-05-07T23:14:30.193Z,1.00
2023-05-07T23:17:02.442Z,1.20
2023-05-07T23:19:32.498Z,1.70
2023-05-07T23:22:02.243Z,3.23
2023-05-07T23:24:31.416Z,3.67
2023-05-07T23:27:00.847Z,1.23
2023-05-07T23:29:30.847Z,1.80
2023-05-07T23:31:58.925Z,1.23
2023-05-07T23:34:29.786Z,1.70
2023-05-07T23:37:03.424Z,0.80
2023-05-07T23:39:32.781Z,1.93
2023-05-07T23:42:03.007Z,1.40
2023-05-07T23:44:33.196Z,1.03
2023-05-07T23:47:03.838Z,1.30
2023-05-07T23:49:33.045Z,1.20
2023-05-07T23:52:03.132Z,1.77
2023-05-07T23:54:34.109Z,1.83
2023-05-07T23:57:04.642Z,1.27
2023-05-07T23:59:34.473Z,1.17
